createdAt,value
2022-12-01T00:01:35.240Z,104.70
2022-12-01T00:04:03.935Z,87.00
2022-12-01T00:06:31.946Z,81.60
2022-12-01T00:09:20.128Z,77.30
2022-12-01T00:11:48.894Z,71.10
2022-12-01T00:14:17.618Z,83.10
2022-12-01T00:16:45.940Z,85.20
2022-12-01T00:19:13.976Z,84.90
2022-12-01T00:21:42.085Z,91.50
2022-12-01T00:24:11.657Z,100.10
2022-12-01T00:26:39.702Z,92.30
2022-12-01T00:29:09.339Z,84.10
2022-12-01T00:31:37.608Z,91.60
2022-12-01T00:34:11.121Z,78.70
2022-12-01T00:36:39.676Z,72.90
2022-12-01T00:39:09.287Z,68.90
2022-12-01T00:41:37.617Z,77.60
2022-12-01T00:44:05.912Z,66.30
2022-12-01T00:46:33.992Z,60.60
2022-12-01T00:49:01.840Z,79.60
2022-12-01T00:51:30.235Z,75.10
2022-12-01T00:53:58.495Z,75.10
2022-12-01T00:56:26.615Z,73.20
2022-12-01T00:58:54.571Z,73.40
2022-12-01T01:01:22.899Z,74.00
2022-12-01T01:03:50.942Z,69.30
2022-12-01T01:06:19.254Z,73.80
2022-12-01T01:08:47.218Z,71.90
2022-12-01T01:11:15.053Z,61.30
2022-12-01T01:13:43.296Z,58.40
2022-12-01T01:16:16.627Z,60.60
2022-12-01T01:18:44.950Z,54.40
2022-12-01T01:21:16.076Z,68.20
2022-12-01T01:23:44.418Z,76.30
2022-12-01T01:26:20.228Z,70.00
2022-12-01T01:28:49.354Z,71.70
2022-12-01T01:31:20.778Z,77.60
2022-12-01T01:33:49.452Z,80.80
2022-12-01T01:36:19.187Z,72.40
2022-12-01T01:38:47.634Z,64.30
2022-12-01T01:41:16.546Z,63.60
2022-12-01T01:43:51.131Z,59.50
2022-12-01T01:46:20.616Z,69.50
2022-12-01T01:49:06.044Z,70.80
2022-12-01T01:51:37.153Z,72.30
2022-12-01T01:54:10.031Z,66.80
2022-12-01T01:56:38.390Z,65.70
2022-12-01T01:59:06.632Z,77.50
2022-12-01T02:01:34.590Z,74.30
2022-12-01T02:04:03.430Z,64.00
2022-12-01T02:06:31.441Z,78.90
2022-12-01T02:08:59.665Z,80.90
2022-12-01T02:11:48.835Z,64.30
2022-12-01T02:14:38.390Z,63.10
2022-12-01T02:17:30.750Z,63.00
2022-12-01T02:20:22.838Z,74.50
2022-12-01T02:23:37.119Z,72.20
2022-12-01T02:26:08.044Z,70.40
2022-12-01T02:29:04.063Z,61.40
2022-12-01T02:31:44.376Z,65.80
2022-12-01T02:34:27.648Z,67.20
2022-12-01T02:37:08.079Z,72.10
2022-12-01T02:39:43.027Z,62.50
2022-12-01T02:42:50.300Z,49.90
2022-12-01T02:45:49.196Z,43.70
2022-12-01T02:48:49.408Z,46.10
2022-12-01T02:51:22.867Z,60.50
2022-12-01T02:53:51.920Z,55.80
2022-12-01T02:56:22.667Z,55.20
2022-12-01T02:58:51.313Z,52.20
2022-12-01T03:01:46.124Z,59.90
2022-12-01T03:04:56.892Z,51.30
2022-12-01T03:07:52.506Z,47.40
2022-12-01T03:10:42.436Z,58.00
2022-12-01T03:13:31.779Z,46.40
2022-12-01T03:16:12.886Z,41.10
2022-12-01T03:18:46.362Z,38.20
2022-12-01T03:21:24.515Z,41.00
2022-12-01T03:23:58.495Z,43.50
2022-12-01T03:26:30.916Z,50.30
2022-12-01T03:29:05.722Z,53.90
2022-12-01T03:31:40.950Z,50.80
2022-12-01T03:34:29.444Z,58.00
2022-12-01T03:37:03.481Z,57.90
2022-12-01T03:39:35.850Z,48.20
2022-12-01T03:42:38.979Z,48.90
2022-12-01T03:45:11.436Z,46.20
2022-12-01T03:47:40.684Z,43.80
2022-12-01T03:50:13.995Z,37.80
2022-12-01T03:53:07.580Z,36.60
2022-12-01T03:55:42.048Z,47.40
2022-12-01T03:58:20.363Z,51.00
2022-12-01T04:00:57.547Z,44.90
2022-12-01T04:03:26.633Z,45.70
2022-12-01T04:05:54.617Z,46.20
2022-12-01T04:08:22.699Z,45.20
2022-12-01T04:10:50.861Z,50.40
2022-12-01T04:13:25.704Z,43.50
2022-12-01T04:15:54.728Z,32.40
2022-12-01T04:18:22.726Z,31.10
2022-12-01T04:20:50.891Z,33.50
2022-12-01T04:23:37.255Z,36.50
2022-12-01T04:26:05.613Z,34.70
2022-12-01T04:28:34.076Z,40.30
2022-12-01T04:31:02.370Z,37.00
2022-12-01T04:33:30.372Z,36.70
2022-12-01T04:36:00.110Z,40.30
2022-12-01T04:38:30.855Z,36.60
2022-12-01T04:40:59.039Z,39.00
2022-12-01T04:43:26.970Z,40.00
2022-12-01T04:45:55.166Z,32.70
2022-12-01T04:48:23.137Z,34.90
2022-12-01T04:50:51.025Z,29.00
2022-12-01T04:53:19.119Z,31.20
2022-12-01T04:55:47.069Z,28.70
2022-12-01T04:58:15.655Z,33.10
2022-12-01T05:00:44.064Z,34.40
2022-12-01T05:03:15.056Z,35.30
2022-12-01T05:05:43.209Z,31.10
2022-12-01T05:08:11.862Z,33.20
2022-12-01T05:10:39.770Z,38.30
2022-12-01T05:13:07.710Z,87.30
2022-12-01T05:15:36.938Z,100.70
2022-12-01T05:18:06.060Z,83.00
2022-12-01T05:20:53.015Z,65.70
2022-12-01T05:23:20.876Z,35.70
2022-12-01T05:25:48.811Z,30.30
2022-12-01T05:28:16.784Z,25.90
2022-12-01T05:30:45.106Z,24.30
2022-12-01T05:33:12.961Z,30.70
2022-12-01T05:35:41.049Z,33.80
2022-12-01T05:38:09.372Z,27.20
2022-12-01T05:40:37.909Z,25.60
2022-12-01T05:43:06.499Z,25.10
2022-12-01T05:45:34.984Z,31.40
2022-12-01T05:48:03.114Z,32.00
2022-12-01T05:50:31.430Z,29.90
2022-12-01T05:52:59.387Z,24.00
2022-12-01T05:55:27.221Z,33.50
2022-12-01T05:57:55.128Z,22.00
2022-12-01T06:00:23.157Z,25.50
2022-12-01T06:02:51.215Z,28.40
2022-12-01T06:05:19.704Z,28.90
2022-12-01T06:07:47.943Z,30.50
2022-12-01T06:10:16.804Z,31.50
2022-12-01T06:12:45.053Z,27.50
2022-12-01T06:15:14.080Z,31.60
2022-12-01T06:17:42.223Z,29.20
2022-12-01T06:20:11.527Z,31.40
2022-12-01T06:22:39.901Z,25.80
2022-12-01T06:25:08.720Z,28.40
2022-12-01T06:27:37.105Z,27.40
2022-12-01T06:30:05.822Z,22.60
2022-12-01T06:32:33.901Z,37.40
2022-12-01T06:35:02.385Z,42.30
2022-12-01T06:37:30.505Z,37.00
2022-12-01T06:39:58.389Z,32.60
2022-12-01T06:42:30.259Z,33.00
2022-12-01T06:44:58.081Z,38.00
2022-12-01T06:47:25.852Z,33.40
2022-12-01T06:49:53.998Z,29.90
2022-12-01T06:52:21.929Z,28.40
2022-12-01T06:54:49.835Z,30.30
2022-12-01T06:57:18.389Z,23.90
2022-12-01T06:59:47.340Z,26.10
2022-12-01T07:02:17.047Z,30.10
2022-12-01T07:04:45.572Z,28.60
2022-12-01T07:07:13.414Z,30.50
2022-12-01T07:09:41.404Z,32.40
2022-12-01T07:12:10.173Z,32.80
2022-12-01T07:14:38.401Z,28.50
2022-12-01T07:17:06.230Z,33.90
2022-12-01T07:19:34.429Z,27.50
2022-12-01T07:22:02.648Z,27.00
2022-12-01T07:24:30.890Z,26.40
2022-12-01T07:26:59.669Z,29.90
2022-12-01T07:29:27.480Z,29.90
2022-12-01T07:31:55.356Z,62.70
2022-12-01T07:34:23.295Z,38.10
2022-12-01T07:36:51.528Z,41.40
2022-12-01T07:39:19.500Z,53.50
2022-12-01T07:41:47.830Z,64.60
2022-12-01T07:44:15.922Z,56.40
2022-12-01T07:46:44.065Z,54.80
2022-12-01T07:49:14.998Z,39.60
2022-12-01T07:51:42.946Z,51.00
2022-12-01T07:54:14.271Z,54.20
2022-12-01T07:56:42.549Z,55.00
2022-12-01T07:59:10.527Z,48.10
2022-12-01T08:01:44.066Z,55.00
2022-12-01T08:04:13.128Z,40.20
2022-12-01T08:06:41.045Z,55.70
2022-12-01T08:09:09.408Z,50.30
2022-12-01T08:11:37.511Z,48.30
2022-12-01T08:14:05.381Z,51.90
2022-12-01T08:16:33.379Z,50.40
2022-12-01T08:19:01.499Z,49.80
2022-12-01T08:21:29.444Z,73.50
2022-12-01T08:23:58.471Z,55.70
2022-12-01T08:26:27.221Z,49.80
2022-12-01T08:28:55.325Z,70.10
2022-12-01T08:31:27.693Z,64.30
2022-12-01T08:33:56.386Z,68.10
2022-12-01T08:36:25.188Z,62.90
2022-12-01T08:38:55.509Z,66.80
2022-12-01T08:41:24.678Z,76.10
2022-12-01T08:43:58.425Z,58.40
2022-12-01T08:46:32.522Z,59.20
2022-12-01T08:49:01.250Z,49.50
2022-12-01T08:51:29.167Z,71.90
2022-12-01T08:53:58.865Z,81.30
2022-12-01T08:56:34.336Z,74.80
2022-12-01T08:59:02.590Z,72.00
2022-12-01T09:01:30.597Z,81.70
2022-12-01T09:04:08.938Z,89.10
2022-12-01T09:06:44.742Z,70.00
2022-12-01T09:09:18.815Z,86.70
2022-12-01T09:11:47.640Z,88.90
2022-12-01T09:14:18.069Z,78.80
2022-12-01T09:16:48.155Z,70.20
2022-12-01T09:19:24.155Z,69.20
2022-12-01T09:21:53.627Z,77.50
2022-12-01T09:24:21.873Z,75.60
2022-12-01T09:26:50.403Z,84.00
2022-12-01T09:29:18.572Z,61.30
2022-12-01T09:31:46.526Z,66.70
2022-12-01T09:34:17.434Z,65.40
2022-12-01T09:36:46.778Z,65.20
2022-12-01T09:39:19.954Z,59.30
2022-12-01T09:41:56.403Z,71.50
2022-12-01T09:44:48.880Z,50.80
2022-12-01T09:47:22.915Z,47.80
2022-12-01T09:50:02.684Z,59.70
2022-12-01T09:53:02.529Z,47.20
2022-12-01T09:55:32.160Z,44.60
2022-12-01T09:58:02.504Z,46.20
2022-12-01T10:00:34.298Z,41.50
2022-12-01T10:03:24.947Z,47.30
2022-12-01T10:06:28.828Z,45.60
2022-12-01T10:09:10.637Z,38.20
2022-12-01T10:11:41.611Z,40.00
2022-12-01T10:14:19.650Z,35.80
2022-12-01T10:16:51.383Z,34.70
2022-12-01T10:19:33.195Z,28.80
2022-12-01T10:22:17.542Z,37.80
2022-12-01T10:25:07.113Z,33.00
2022-12-01T10:27:38.489Z,27.80
2022-12-01T10:30:09.810Z,28.10
2022-12-01T10:32:54.586Z,30.10
2022-12-01T10:35:25.943Z,33.50
2022-12-01T10:38:00.095Z,30.40
2022-12-01T10:40:29.005Z,31.10
2022-12-01T10:42:57.094Z,34.50
2022-12-01T10:45:28.378Z,33.00
2022-12-01T10:48:16.605Z,33.00
2022-12-01T10:51:10.079Z,25.20
2022-12-01T10:53:38.571Z,25.20
2022-12-01T10:56:14.324Z,35.10
2022-12-01T10:58:50.021Z,33.00
2022-12-01T11:01:31.949Z,32.20
2022-12-01T11:04:03.264Z,33.90
2022-12-01T11:06:32.615Z,34.00
2022-12-01T11:09:19.223Z,30.70
2022-12-01T11:12:02.528Z,26.20
2022-12-01T11:14:44.810Z,33.00
2022-12-01T11:17:33.914Z,31.30
2022-12-01T11:20:27.907Z,29.90
2022-12-01T11:23:18.573Z,28.20
2022-12-01T11:26:00.942Z,30.80
2022-12-01T11:28:30.102Z,29.80
2022-12-01T11:31:04.106Z,31.00
2022-12-01T11:33:48.164Z,33.80
2022-12-01T11:36:25.286Z,51.00
2022-12-01T11:38:59.259Z,33.90
2022-12-01T11:41:40.924Z,39.50
2022-12-01T11:44:43.619Z,31.20
2022-12-01T11:47:23.184Z,29.20
2022-12-01T11:49:54.279Z,28.50
2022-12-01T11:52:30.696Z,33.80
2022-12-01T11:55:08.426Z,29.80
2022-12-01T11:57:42.584Z,30.60
2022-12-01T12:00:18.358Z,32.00
2022-12-01T12:03:10.981Z,33.90
2022-12-01T12:05:39.095Z,30.20
2022-12-01T12:08:34.374Z,39.50
2022-12-01T12:11:29.163Z,37.50
2022-12-01T12:13:56.901Z,34.40
2022-12-01T12:16:44.104Z,39.00
2022-12-01T12:19:22.430Z,34.20
2022-12-01T12:22:41.949Z,38.20
2022-12-01T12:25:34.650Z,34.10
2022-12-01T12:28:39.409Z,32.10
2022-12-01T12:31:25.582Z,31.60
2022-12-01T12:33:59.281Z,31.70
2022-12-01T12:36:59.183Z,39.20
2022-12-01T12:40:04.128Z,42.60
2022-12-01T12:43:14.217Z,35.70
2022-12-01T12:45:49.101Z,34.40
2022-12-01T12:48:19.745Z,30.80
2022-12-01T12:51:05.774Z,34.20
2022-12-01T12:53:44.848Z,37.30
2022-12-01T12:56:18.138Z,30.90
2022-12-01T12:59:04.382Z,41.60
2022-12-01T13:01:54.004Z,32.30
2022-12-01T13:04:30.078Z,37.00
2022-12-01T13:07:07.244Z,32.60
2022-12-01T13:09:51.549Z,33.70
2022-12-01T13:12:30.222Z,31.90
2022-12-01T13:15:19.565Z,29.30
2022-12-01T13:17:58.735Z,32.40
2022-12-01T13:20:29.831Z,29.00
2022-12-01T13:23:00.850Z,31.10
2022-12-01T13:25:39.728Z,29.30
2022-12-01T13:28:40.471Z,34.70
2022-12-01T13:31:13.883Z,29.10
2022-12-01T13:33:57.465Z,32.40
2022-12-01T13:39:18.259Z,32.10
2022-12-01T13:41:56.824Z,30.90
2022-12-01T13:44:33.717Z,38.50
2022-12-01T13:47:30.416Z,46.10
2022-12-01T13:50:36.095Z,31.90
2022-12-01T13:53:19.869Z,32.60
2022-12-01T13:55:57.078Z,35.10
2022-12-01T13:58:47.501Z,28.70
2022-12-01T14:01:22.068Z,30.80
2022-12-01T14:03:56.903Z,33.00
2022-12-01T14:06:35.865Z,34.50
2022-12-01T14:09:17.839Z,33.80
2022-12-01T14:12:01.392Z,30.30
2022-12-01T14:14:36.764Z,32.90
2022-12-01T14:17:06.014Z,32.40
2022-12-01T14:19:39.745Z,33.60
2022-12-01T14:22:30.866Z,43.70
2022-12-01T14:24:59.734Z,27.00
2022-12-01T14:27:42.525Z,32.10
2022-12-01T14:30:41.806Z,35.30
2022-12-01T14:33:46.388Z,34.50
2022-12-01T14:36:23.454Z,33.40
2022-12-01T14:39:01.476Z,32.20
2022-12-01T14:41:42.510Z,31.70
2022-12-01T14:44:19.709Z,34.50
2022-12-01T14:47:21.114Z,31.70
2022-12-01T14:50:06.231Z,37.00
2022-12-01T14:52:38.731Z,34.90
2022-12-01T14:55:15.865Z,29.60
2022-12-01T14:57:50.568Z,33.10
2022-12-01T15:00:22.843Z,36.20
2022-12-01T15:02:56.793Z,28.90
2022-12-01T15:05:31.173Z,27.40
2022-12-01T15:08:40.299Z,38.40
2022-12-01T15:11:09.437Z,38.60
2022-12-01T15:13:51.247Z,37.80
2022-12-01T15:16:22.114Z,36.70
2022-12-01T15:18:50.554Z,39.00
2022-12-01T15:21:23.568Z,33.80
2022-12-01T15:24:03.270Z,34.30
2022-12-01T15:26:34.328Z,38.10
2022-12-01T15:29:21.441Z,37.20
2022-12-01T15:31:53.483Z,32.80
2022-12-01T15:34:27.187Z,41.00
2022-12-01T15:36:56.040Z,38.60
2022-12-01T15:39:35.817Z,33.20
2022-12-01T15:42:04.258Z,38.20
2022-12-01T15:44:35.295Z,42.00
2022-12-01T15:47:36.124Z,34.70
2022-12-01T15:52:43.094Z,33.60
2022-12-01T15:55:25.514Z,29.60
2022-12-01T15:57:54.807Z,30.40
2022-12-01T16:00:23.564Z,38.20
2022-12-01T16:02:57.785Z,42.50
2022-12-01T16:05:29.010Z,41.60
2022-12-01T16:08:13.966Z,31.70
2022-12-01T16:10:42.620Z,36.90
2022-12-01T16:13:41.521Z,35.50
2022-12-01T16:16:28.442Z,31.90
2022-12-01T16:19:05.630Z,33.10
2022-12-01T16:21:46.804Z,39.70
2022-12-01T16:24:37.803Z,36.20
2022-12-01T16:27:16.654Z,39.20
2022-12-01T16:29:50.169Z,33.60
2022-12-01T16:32:44.396Z,45.80
2022-12-01T16:35:38.851Z,39.60
2022-12-01T16:38:17.286Z,32.30
2022-12-01T16:40:52.317Z,52.00
2022-12-01T16:43:25.412Z,33.80
2022-12-01T16:46:03.397Z,31.20
2022-12-01T16:48:31.757Z,34.20
2022-12-01T16:51:03.615Z,41.80
2022-12-01T16:53:31.925Z,38.10
2022-12-01T16:56:02.184Z,41.00
2022-12-01T16:58:30.805Z,57.10
2022-12-01T17:00:58.989Z,40.20
2022-12-01T17:03:28.420Z,53.10
2022-12-01T17:06:00.721Z,65.40
2022-12-01T17:08:28.757Z,56.50
2022-12-01T17:10:56.956Z,53.90
2022-12-01T17:13:25.288Z,59.40
2022-12-01T17:15:55.291Z,51.80
2022-12-01T17:18:24.037Z,65.00
2022-12-01T17:21:02.902Z,93.30
2022-12-01T17:23:32.819Z,163.50
2022-12-01T17:26:01.609Z,140.70
2022-12-01T17:28:29.709Z,143.30
2022-12-01T17:31:00.617Z,171.90
2022-12-01T17:33:29.066Z,205.80
2022-12-01T17:36:02.810Z,165.10
2022-12-01T17:38:30.971Z,170.30
2022-12-01T17:41:00.720Z,187.70
2022-12-01T17:43:29.134Z,179.50
2022-12-01T17:45:57.266Z,164.70
2022-12-01T17:48:26.057Z,152.30
2022-12-01T17:50:54.059Z,163.40
2022-12-01T17:53:21.967Z,160.70
2022-12-01T17:55:51.195Z,159.70
2022-12-01T17:58:21.546Z,165.20
2022-12-01T18:00:53.673Z,179.90
2022-12-01T18:03:21.754Z,157.30
2022-12-01T18:06:00.071Z,155.90
2022-12-01T18:08:30.439Z,160.70
2022-12-01T18:11:03.846Z,165.20
2022-12-01T18:13:31.752Z,176.10
2022-12-01T18:15:59.669Z,177.90
2022-12-01T18:18:27.759Z,164.70
2022-12-01T18:20:55.630Z,168.90
2022-12-01T18:23:23.533Z,171.70
2022-12-01T18:25:51.819Z,172.90
2022-12-01T18:28:20.322Z,181.20
2022-12-01T18:30:49.418Z,183.10
2022-12-01T18:33:18.221Z,177.70
2022-12-01T18:35:46.031Z,194.90
2022-12-01T18:38:14.190Z,192.80
2022-12-01T18:40:42.379Z,166.00
2022-12-01T18:43:10.192Z,168.90
2022-12-01T18:45:40.166Z,188.50
2022-12-01T18:48:08.544Z,180.30
2022-12-01T18:50:36.610Z,147.90
2022-12-01T18:53:05.100Z,151.30
2022-12-01T18:55:36.524Z,179.90
2022-12-01T18:58:04.592Z,179.90
2022-12-01T19:00:33.033Z,187.50
2022-12-01T19:03:01.782Z,202.50
2022-12-01T19:05:30.807Z,196.90
2022-12-01T19:07:59.147Z,184.50
2022-12-01T19:10:27.461Z,190.10
2022-12-01T19:12:55.449Z,192.90
2022-12-01T19:15:23.449Z,181.20
2022-12-01T19:17:51.295Z,182.30
2022-12-01T19:20:19.644Z,170.00
2022-12-01T19:22:48.558Z,167.80
2022-12-01T19:25:16.806Z,188.70
2022-12-01T19:27:45.169Z,186.50
2022-12-01T19:30:13.220Z,174.90
2022-12-01T19:32:43.499Z,173.20
2022-12-01T19:35:11.886Z,168.80
2022-12-01T19:37:39.790Z,190.80
2022-12-01T19:40:08.527Z,177.50
2022-12-01T19:42:36.729Z,172.20
2022-12-01T19:45:05.225Z,158.70
2022-12-01T19:47:34.684Z,148.70
2022-12-01T19:50:03.423Z,143.40
2022-12-01T19:52:31.196Z,148.10
2022-12-01T19:54:59.852Z,152.80
2022-12-01T19:57:27.815Z,135.30
2022-12-01T19:59:55.738Z,144.10
2022-12-01T20:02:28.943Z,135.60
2022-12-01T20:04:57.557Z,138.60
2022-12-01T20:07:25.751Z,140.30
2022-12-01T20:09:53.891Z,135.40
2022-12-01T20:12:22.015Z,141.10
2022-12-01T20:14:50.336Z,139.30
2022-12-01T20:17:18.879Z,140.00
2022-12-01T20:19:46.890Z,131.50
2022-12-01T20:22:14.800Z,133.60
2022-12-01T20:24:42.777Z,130.60
2022-12-01T20:27:10.729Z,127.60
2022-12-01T20:29:38.896Z,133.40
2022-12-01T20:32:07.169Z,137.50
2022-12-01T20:34:36.460Z,130.00
2022-12-01T20:37:04.670Z,130.60
2022-12-01T20:39:34.691Z,130.60
2022-12-01T20:42:02.759Z,138.70
2022-12-01T20:44:30.854Z,122.60
2022-12-01T20:46:58.895Z,123.40
2022-12-01T20:49:27.130Z,128.70
2022-12-01T20:51:55.389Z,135.70
2022-12-01T20:54:28.331Z,128.00
2022-12-01T20:56:58.292Z,129.40
2022-12-01T20:59:27.127Z,130.20
2022-12-01T21:01:55.487Z,131.30
2022-12-01T21:04:23.747Z,124.90
2022-12-01T21:06:55.717Z,121.00
2022-12-01T21:09:23.775Z,125.50
2022-12-01T21:12:10.244Z,132.20
2022-12-01T21:14:44.673Z,127.80
2022-12-01T21:17:32.406Z,132.40
2022-12-01T21:20:18.232Z,120.80
2022-12-01T21:22:46.727Z,129.80
2022-12-01T21:25:18.885Z,125.90
2022-12-01T21:27:48.147Z,121.50
2022-12-01T21:30:30.030Z,121.30
2022-12-01T21:33:26.332Z,111.30
2022-12-01T21:35:55.906Z,106.60
2022-12-01T21:38:25.175Z,117.50
2022-12-01T21:40:53.260Z,119.80
2022-12-01T21:43:23.895Z,131.00
2022-12-01T21:46:13.864Z,104.90
2022-12-01T21:48:42.762Z,105.90
2022-12-01T21:51:21.172Z,102.50
2022-12-01T21:53:50.269Z,116.10
2022-12-01T21:56:27.633Z,105.10
2022-12-01T21:58:59.261Z,116.60
2022-12-01T22:01:30.001Z,106.70
2022-12-01T22:04:09.113Z,97.40
2022-12-01T22:06:43.359Z,102.70
2022-12-01T22:09:17.655Z,112.40
2022-12-01T22:11:51.004Z,124.20
2022-12-01T22:14:26.401Z,127.90
2022-12-01T22:17:06.872Z,113.70
2022-12-01T22:19:40.163Z,125.80
2022-12-01T22:22:11.301Z,123.20
2022-12-01T22:24:40.941Z,108.70
2022-12-01T22:27:19.288Z,120.30
2022-12-01T22:29:49.143Z,112.00
2022-12-01T22:32:16.963Z,82.70
2022-12-01T22:34:55.295Z,63.40
2022-12-01T22:37:28.505Z,43.40
2022-12-01T22:39:57.346Z,36.70
2022-12-01T22:42:32.112Z,41.10
2022-12-01T22:45:14.946Z,32.60
2022-12-01T22:47:42.754Z,32.90
2022-12-01T22:50:31.423Z,37.70
2022-12-01T22:53:06.511Z,29.80
2022-12-01T22:55:34.810Z,31.80
2022-12-01T22:58:21.919Z,27.30
2022-12-01T23:00:50.281Z,33.60
2022-12-01T23:03:18.518Z,46.50
2022-12-01T23:05:53.148Z,72.30
2022-12-01T23:08:23.318Z,96.90
2022-12-01T23:10:51.989Z,106.80
2022-12-01T23:13:24.943Z,130.90
2022-12-01T23:15:54.180Z,137.70
2022-12-01T23:18:33.364Z,138.90
2022-12-01T23:21:02.170Z,118.30
2022-12-01T23:23:35.871Z,104.10
2022-12-01T23:26:06.363Z,86.70
2022-12-01T23:28:41.597Z,110.20
2022-12-01T23:31:10.302Z,109.60
2022-12-01T23:33:38.491Z,104.50
2022-12-01T23:36:17.012Z,116.30
2022-12-01T23:38:51.902Z,120.40
2022-12-01T23:41:26.462Z,127.80
2022-12-01T23:43:55.915Z,104.40
2022-12-01T23:46:27.756Z,108.30
2022-12-01T23:49:02.703Z,104.80
2022-12-01T23:51:47.842Z,131.30
2022-12-01T23:54:28.898Z,123.00
2022-12-01T23:57:01.506Z,119.40
2022-12-01T23:59:31.884Z,104.80
